ABL382D RKPC-RKPK
Flight info
| Callsign | ABL382D |
|---|---|
| Flight time | 0h 32m |
| Altitude | 23000 |
| Route | AKPON1W AKPON Y571 ANROD KEVOX3 |
| Aircraft | A321/M-SDE3FGHIRWY/LB1 |
Departure
| Time | 2026-04-30 11:37 |
|---|---|
| Airport | Jeju International Airport (RKPC) |
Arrival
| Time | 2026-04-30 12:10 |
|---|---|
| Airport | Gimhae International Airport (RKPK) |
| Time | Latitude | Longitude | Altitude | Speed | Heading |
|---|---|---|---|---|---|
| 2026-04-30 11:26 | 33.50880 | 126.49140 | 133 ft | 0 kts | 328° |
| 2026-04-30 11:32 | 33.50882 | 126.49139 | 133 ft | 1 kts | 328° |
| 2026-04-30 11:32 | 33.50896 | 126.49128 | 133 ft | 3 kts | 328° |
| 2026-04-30 11:32 | 33.50922 | 126.49109 | 133 ft | 5 kts | 328° |
| 2026-04-30 11:33 | 33.50984 | 126.49161 | 133 ft | 6 kts | 58° |
| 2026-04-30 11:33 | 33.51007 | 126.49207 | 133 ft | 7 kts | 58° |
| 2026-04-30 11:33 | 33.51035 | 126.49261 | 133 ft | 8 kts | 59° |
| 2026-04-30 11:33 | 33.51066 | 126.49322 | 133 ft | 10 kts | 58° |
| 2026-04-30 11:34 | 33.51105 | 126.49398 | 133 ft | 11 kts | 58° |
| 2026-04-30 11:34 | 33.51145 | 126.49477 | 133 ft | 11 kts | 58° |
| 2026-04-30 11:34 | 33.51186 | 126.49556 | 133 ft | 12 kts | 58° |
| 2026-04-30 11:34 | 33.51234 | 126.49649 | 133 ft | 15 kts | 58° |
| 2026-04-30 11:35 | 33.51289 | 126.49756 | 133 ft | 15 kts | 58° |
| 2026-04-30 11:35 | 33.51348 | 126.49826 | 133 ft | 10 kts | 6° |
| 2026-04-30 11:35 | 33.51416 | 126.49799 | 133 ft | 10 kts | 331° |
| 2026-04-30 11:35 | 33.51465 | 126.49743 | 133 ft | 8 kts | 274° |
| 2026-04-30 11:36 | 33.51450 | 126.49692 | 133 ft | 14 kts | 241° |
| 2026-04-30 11:36 | 33.51288 | 126.49375 | 133 ft | 67 kts | 238° |
| 2026-04-30 11:36 | 33.50936 | 126.48689 | 133 ft | 124 kts | 238° |
| 2026-04-30 11:36 | 33.50597 | 126.48030 | 133 ft | 157 kts | 239° |
| 2026-04-30 11:37 | 33.49983 | 126.46823 | 531 ft | 170 kts | 239° |
| 2026-04-30 11:37 | 33.49154 | 126.45218 | 1651 ft | 170 kts | 239° |
| 2026-04-30 11:37 | 33.48736 | 126.44424 | 2165 ft | 170 kts | 240° |
| 2026-04-30 11:37 | 33.47883 | 126.42801 | 2904 ft | 179 kts | 242° |
| 2026-04-30 11:38 | 33.47208 | 126.41492 | 3353 ft | 196 kts | 243° |
| 2026-04-30 11:38 | 33.46701 | 126.40503 | 3562 ft | 215 kts | 242° |
| 2026-04-30 11:38 | 33.45870 | 126.38897 | 4112 ft | 230 kts | 241° |
| 2026-04-30 11:38 | 33.45014 | 126.37255 | 4896 ft | 242 kts | 241° |
| 2026-04-30 11:39 | 33.44084 | 126.35507 | 5560 ft | 253 kts | 237° |
| 2026-04-30 11:39 | 33.42763 | 126.34051 | 6296 ft | 267 kts | 211° |
| 2026-04-30 11:39 | 33.40945 | 126.33504 | 7132 ft | 276 kts | 182° |
| 2026-04-30 11:39 | 33.39013 | 126.33720 | 8036 ft | 282 kts | 173° |
| 2026-04-30 11:40 | 33.37061 | 126.34062 | 8954 ft | 287 kts | 172° |
| 2026-04-30 11:40 | 33.35094 | 126.34425 | 9884 ft | 291 kts | 172° |
| 2026-04-30 11:40 | 33.33047 | 126.34943 | 10516 ft | 311 kts | 162° |
| 2026-04-30 11:40 | 33.31180 | 126.36390 | 10848 ft | 342 kts | 138° |
| 2026-04-30 11:41 | 33.29842 | 126.38857 | 11293 ft | 368 kts | 114° |
| 2026-04-30 11:41 | 33.29394 | 126.41936 | 11979 ft | 386 kts | 91° |
| 2026-04-30 11:41 | 33.29755 | 126.45165 | 12727 ft | 399 kts | 81° |
| 2026-04-30 11:41 | 33.30303 | 126.48465 | 13458 ft | 409 kts | 81° |
| 2026-04-30 11:42 | 33.30837 | 126.51843 | 14228 ft | 418 kts | 82° |
| 2026-04-30 11:42 | 33.31383 | 126.55280 | 15010 ft | 426 kts | 79° |
| 2026-04-30 11:42 | 33.32244 | 126.58700 | 15799 ft | 434 kts | 71° |
| 2026-04-30 11:42 | 33.33517 | 126.61997 | 16528 ft | 442 kts | 63° |
| 2026-04-30 11:43 | 33.35158 | 126.65142 | 17207 ft | 449 kts | 58° |
| 2026-04-30 11:43 | 33.36906 | 126.68280 | 17836 ft | 456 kts | 57° |
| 2026-04-30 11:43 | 33.38688 | 126.71460 | 18450 ft | 463 kts | 57° |
| 2026-04-30 11:43 | 33.40488 | 126.74680 | 19035 ft | 470 kts | 57° |
| 2026-04-30 11:44 | 33.42316 | 126.77959 | 19611 ft | 476 kts | 57° |
| 2026-04-30 11:44 | 33.44161 | 126.81274 | 20159 ft | 482 kts | 57° |
| 2026-04-30 11:44 | 33.46030 | 126.84637 | 20685 ft | 488 kts | 57° |
| 2026-04-30 11:44 | 33.47923 | 126.88051 | 21189 ft | 494 kts | 58° |
| 2026-04-30 11:45 | 33.49830 | 126.91496 | 21671 ft | 500 kts | 58° |
| 2026-04-30 11:45 | 33.51760 | 126.94992 | 22145 ft | 505 kts | 58° |
| 2026-04-30 11:45 | 33.53708 | 126.98524 | 22602 ft | 510 kts | 58° |
| 2026-04-30 11:45 | 33.55676 | 127.02099 | 22898 ft | 518 kts | 58° |
| 2026-04-30 11:46 | 33.57661 | 127.05703 | 22978 ft | 521 kts | 57° |
| 2026-04-30 11:46 | 33.59888 | 127.09165 | 23001 ft | 521 kts | 50° |
| 2026-04-30 11:46 | 33.62281 | 127.12425 | 23004 ft | 521 kts | 48° |
| 2026-04-30 11:46 | 33.64681 | 127.15599 | 23002 ft | 520 kts | 47° |
| 2026-04-30 11:47 | 33.67088 | 127.18766 | 23001 ft | 519 kts | 47° |
| 2026-04-30 11:47 | 33.69519 | 127.21964 | 22999 ft | 519 kts | 47° |
| 2026-04-30 11:47 | 33.71951 | 127.25172 | 22996 ft | 518 kts | 47° |
| 2026-04-30 11:47 | 33.74372 | 127.28375 | 22994 ft | 518 kts | 47° |
| 2026-04-30 11:48 | 33.76789 | 127.31579 | 22991 ft | 518 kts | 48° |
| 2026-04-30 11:48 | 33.79165 | 127.34746 | 22989 ft | 516 kts | 48° |
| 2026-04-30 11:48 | 33.81596 | 127.37999 | 22987 ft | 517 kts | 48° |
| 2026-04-30 11:48 | 33.84000 | 127.41221 | 22984 ft | 516 kts | 48° |
| 2026-04-30 11:49 | 33.86354 | 127.44381 | 22982 ft | 516 kts | 48° |
| 2026-04-30 11:49 | 33.88754 | 127.47605 | 22979 ft | 516 kts | 48° |
| 2026-04-30 11:49 | 33.91142 | 127.50818 | 22977 ft | 515 kts | 48° |
| 2026-04-30 11:49 | 33.93529 | 127.54031 | 22975 ft | 515 kts | 48° |
| 2026-04-30 11:50 | 33.95924 | 127.57259 | 22973 ft | 515 kts | 48° |
| 2026-04-30 11:50 | 33.98310 | 127.60479 | 22970 ft | 514 kts | 48° |
| 2026-04-30 11:50 | 34.00687 | 127.63691 | 22969 ft | 513 kts | 48° |
| 2026-04-30 11:50 | 34.03056 | 127.66889 | 22967 ft | 512 kts | 48° |
| 2026-04-30 11:51 | 34.05435 | 127.70104 | 22964 ft | 513 kts | 48° |
| 2026-04-30 11:51 | 34.07810 | 127.73321 | 22962 ft | 513 kts | 48° |
| 2026-04-30 11:51 | 34.10177 | 127.76530 | 22960 ft | 513 kts | 48° |
| 2026-04-30 11:51 | 34.12544 | 127.79745 | 22958 ft | 513 kts | 48° |
| 2026-04-30 11:52 | 34.14687 | 127.82657 | 22957 ft | 513 kts | 48° |
| 2026-04-30 11:52 | 34.17056 | 127.85878 | 22963 ft | 513 kts | 48° |
| 2026-04-30 11:52 | 34.19427 | 127.89105 | 22963 ft | 513 kts | 48° |
| 2026-04-30 11:52 | 34.21790 | 127.92324 | 22963 ft | 513 kts | 48° |
| 2026-04-30 11:53 | 34.24154 | 127.95546 | 22961 ft | 513 kts | 48° |
| 2026-04-30 11:53 | 34.26485 | 127.98733 | 22960 ft | 513 kts | 49° |
| 2026-04-30 11:53 | 34.28842 | 128.01981 | 22957 ft | 513 kts | 49° |
| 2026-04-30 11:53 | 34.31185 | 128.05220 | 22951 ft | 512 kts | 49° |
| 2026-04-30 11:54 | 34.33527 | 128.08456 | 22949 ft | 512 kts | 49° |
| 2026-04-30 11:54 | 34.35874 | 128.11698 | 22947 ft | 512 kts | 49° |
| 2026-04-30 11:54 | 34.38251 | 128.14978 | 22922 ft | 511 kts | 49° |
| 2026-04-30 11:54 | 34.40539 | 128.18135 | 22244 ft | 501 kts | 49° |
| 2026-04-30 11:55 | 34.42828 | 128.21293 | 21386 ft | 494 kts | 49° |
| 2026-04-30 11:55 | 34.45072 | 128.24388 | 20609 ft | 485 kts | 49° |
| 2026-04-30 11:55 | 34.47279 | 128.27434 | 19834 ft | 477 kts | 49° |
| 2026-04-30 11:55 | 34.49452 | 128.30434 | 19054 ft | 469 kts | 49° |
| 2026-04-30 11:56 | 34.51585 | 128.33381 | 18314 ft | 460 kts | 49° |
| 2026-04-30 11:56 | 34.53677 | 128.36272 | 17569 ft | 451 kts | 49° |
| 2026-04-30 11:56 | 34.55728 | 128.39107 | 16841 ft | 442 kts | 49° |
| 2026-04-30 11:56 | 34.57734 | 128.41888 | 16155 ft | 434 kts | 49° |
| 2026-04-30 11:57 | 34.59704 | 128.44624 | 15462 ft | 426 kts | 49° |
| 2026-04-30 11:57 | 34.61730 | 128.47209 | 14778 ft | 420 kts | 43° |
| 2026-04-30 11:57 | 34.64038 | 128.49343 | 14106 ft | 414 kts | 32° |
| 2026-04-30 11:57 | 34.66600 | 128.50881 | 13450 ft | 407 kts | 20° |
| 2026-04-30 11:58 | 34.69256 | 128.51961 | 12832 ft | 400 kts | 17° |
| 2026-04-30 11:58 | 34.71895 | 128.52950 | 12195 ft | 394 kts | 16° |
| 2026-04-30 11:58 | 34.74502 | 128.53911 | 11554 ft | 389 kts | 16° |
| 2026-04-30 11:58 | 34.77045 | 128.54846 | 10948 ft | 383 kts | 16° |
| 2026-04-30 11:59 | 34.79535 | 128.55763 | 10793 ft | 364 kts | 16° |
| 2026-04-30 11:59 | 34.81873 | 128.56626 | 10715 ft | 336 kts | 16° |
| 2026-04-30 11:59 | 34.84040 | 128.57427 | 10634 ft | 318 kts | 16° |
| 2026-04-30 11:59 | 34.86117 | 128.58196 | 10504 ft | 306 kts | 16° |
| 2026-04-30 12:00 | 34.88080 | 128.59083 | 10342 ft | 297 kts | 24° |
| 2026-04-30 12:00 | 34.89842 | 128.60322 | 10080 ft | 291 kts | 35° |
| 2026-04-30 12:00 | 34.91411 | 128.61901 | 9612 ft | 293 kts | 41° |
| 2026-04-30 12:00 | 34.92931 | 128.63556 | 9158 ft | 291 kts | 41° |
| 2026-04-30 12:01 | 34.94424 | 128.65199 | 8625 ft | 288 kts | 42° |
| 2026-04-30 12:01 | 34.95900 | 128.66832 | 8229 ft | 285 kts | 42° |
| 2026-04-30 12:01 | 34.97362 | 128.68450 | 7858 ft | 283 kts | 41° |
| 2026-04-30 12:01 | 34.98807 | 128.70072 | 7504 ft | 281 kts | 44° |
| 2026-04-30 12:02 | 34.99927 | 128.72002 | 7149 ft | 279 kts | 65° |
| 2026-04-30 12:02 | 35.00270 | 128.74283 | 6887 ft | 269 kts | 92° |
| 2026-04-30 12:02 | 34.99787 | 128.76389 | 6761 ft | 251 kts | 113° |
| 2026-04-30 12:02 | 34.99029 | 128.78247 | 6645 ft | 240 kts | 116° |
| 2026-04-30 12:03 | 34.98258 | 128.80045 | 6543 ft | 239 kts | 116° |
| 2026-04-30 12:03 | 34.96739 | 128.83661 | 6203 ft | 240 kts | 111° |
| 2026-04-30 12:03 | 34.96289 | 128.85600 | 5846 ft | 238 kts | 103° |
| 2026-04-30 12:04 | 34.95878 | 128.87550 | 5466 ft | 235 kts | 103° |
| 2026-04-30 12:04 | 34.95488 | 128.89438 | 5133 ft | 229 kts | 102° |
| 2026-04-30 12:04 | 34.95145 | 128.91335 | 4844 ft | 229 kts | 101° |
| 2026-04-30 12:04 | 34.94933 | 128.93249 | 4414 ft | 229 kts | 86° |
| 2026-04-30 12:05 | 34.95455 | 128.95000 | 4157 ft | 219 kts | 53° |
| 2026-04-30 12:05 | 34.96710 | 128.96049 | 3978 ft | 222 kts | 19° |
| 2026-04-30 12:05 | 34.98236 | 128.96170 | 3662 ft | 221 kts | 358° |
| 2026-04-30 12:05 | 34.99773 | 128.95990 | 3334 ft | 221 kts | 356° |
| 2026-04-30 12:06 | 35.01286 | 128.95804 | 3017 ft | 215 kts | 355° |
| 2026-04-30 12:06 | 35.02742 | 128.95622 | 2719 ft | 208 kts | 355° |
| 2026-04-30 12:06 | 35.04149 | 128.95446 | 2433 ft | 197 kts | 355° |
| 2026-04-30 12:06 | 35.05474 | 128.95279 | 2190 ft | 186 kts | 356° |
| 2026-04-30 12:07 | 35.06741 | 128.95120 | 1943 ft | 183 kts | 356° |
| 2026-04-30 12:07 | 35.08003 | 128.94963 | 1695 ft | 179 kts | 356° |
| 2026-04-30 12:07 | 35.09204 | 128.94811 | 1463 ft | 168 kts | 356° |
| 2026-04-30 12:07 | 35.10319 | 128.94670 | 1244 ft | 155 kts | 356° |
| 2026-04-30 12:08 | 35.11392 | 128.94537 | 1042 ft | 154 kts | 356° |
| 2026-04-30 12:08 | 35.12443 | 128.94410 | 829 ft | 151 kts | 356° |
| 2026-04-30 12:08 | 35.13490 | 128.94291 | 626 ft | 150 kts | 355° |
| 2026-04-30 12:08 | 35.14528 | 128.94143 | 448 ft | 151 kts | 354° |
| 2026-04-30 12:09 | 35.15567 | 128.94007 | 253 ft | 150 kts | 355° |
| 2026-04-30 12:09 | 35.16602 | 128.93882 | 72 ft | 149 kts | 354° |
| 2026-04-30 12:09 | 35.17560 | 128.93755 | 30 ft | 120 kts | 355° |
| 2026-04-30 12:09 | 35.18232 | 128.93672 | 28 ft | 71 kts | 353° |
| 2026-04-30 12:10 | 35.18570 | 128.93630 | 28 ft | 36 kts | 354° |
| 2026-04-30 12:10 | 35.18771 | 128.93619 | 28 ft | 24 kts | 21° |
| 2026-04-30 12:10 | 35.18901 | 128.93726 | 28 ft | 21 kts | 36° |
| 2026-04-30 12:10 | 35.18989 | 128.93847 | 28 ft | 19 kts | 83° |
| 2026-04-30 12:11 | 35.19001 | 128.93966 | 28 ft | 13 kts | 83° |
| 2026-04-30 12:11 | 35.19009 | 128.94055 | 28 ft | 9 kts | 87° |
| 2026-04-30 12:11 | 35.18958 | 128.94088 | 28 ft | 10 kts | 174° |
| 2026-04-30 12:11 | 35.18886 | 128.94101 | 28 ft | 10 kts | 173° |
| 2026-04-30 12:12 | 35.18814 | 128.94112 | 28 ft | 11 kts | 173° |
| 2026-04-30 12:12 | 35.18739 | 128.94120 | 28 ft | 11 kts | 175° |
| 2026-04-30 12:12 | 35.18661 | 128.94130 | 28 ft | 11 kts | 174° |